KISQ

Schoolcraft County Airport

Manistique, Michigan, USA
METAR KISQ 182335Z AUTO 35004KT 10SM CLR 21/13 A3001 RMK AO2 T02130134
Observed Flight Rules
Aug-18 @ 23:35 UTC (11 minutes ago) Visual Flight Rules
Wind Visibility Clouds
350° at 4 knots 10 miles
  • Clear skies
Temperatures Readings
Current 21°C / 70°F
Dewpoint 13°C / 55°F
Humidity 60%
Altimeter 30.01" Hg
Pressure 1016 hPa
Elevation 209
METAR KISQ 182335Z AUTO 35004KT 10SM CLR 21/13 A3001 RMK AO2 T02130134
Observed Flight Rules
Aug-18 @ 23:35 UTC
(11 minutes ago)
VFR
Wind Visibility
350° at 4 knots 10 miles
Clouds
  • Clear skies
Temperature Dewpoint
21°C / 70°F 13°C / 55°F
Humidity Altimeter Pressure
60% 30.01" Hg 1016 hPa